Kekaha, HI

5:51 AM HST on April 25, 2017 (GMT -1000)
LizKauai | | Change Station

Elev 62 ft 21.96 °N, 159.67 °W | Updated 5 minutes ago

Clear
Clear
67.1 °F
Feels Like 67.1 °F
N
0.0
Wind Variable Wind from SW

Today
High -- | Low -- °F
--% Chance of Precip.
Yesterday
High -- | Low -- °F
Precip. -- in
Pressure 30.08 in
Visibility 10.0 miles
Clouds Few 2100 ft
Dew Point 58 °F
Humidity 72%
Rainfall 0.78 in
Snow Depth Not available.
6:11 AM 7:02 PM
Waning Crescent, 1% visible
METAR PHLI 251453Z 04013KT 10SM FEW021 24/19 A3009 RMK AO2 SLP186 T02390194 55009
Pressure 30.08 in
Visibility 10.0 miles
Clouds Few 2100 ft
Dew Point 58 °F
Humidity 72%
Rainfall 0.78 in
Snow Depth Not available.
6:11 AM 7:02 PM
Waning Crescent, 1% visible
METAR PHLI 251453Z 04013KT 10SM FEW021 24/19 A3009 RMK AO2 SLP186 T02390194 55009

Get Severe Weather Alerts

Thanks for signing up!

Be on the lookout for a verification email in your inbox.

You'll start receiving the daily forecast at 8 AM.

×

10-Day Weather Forecast

Almanac

Astronomy

Apr. 25, 2017 Rise Set
Actual Time
Civil Twilight
Nautical Twilight
Astronomical Twilight
Moon
Length of Visible Light
Length of Day
Tomorrow will be .
, % of the Moon is Illuminated

Today's Extremes

State Highs State Lows

Community

WunderPhotos

WunderBlog® & News

Nearby

Air Quality

  Air Quality AQ Index Pollutant
Not available.

Snow Depth

Station Depth Elevation

Earthquake Activity

City Distance Mag. Time & Date
Minimum magnitude displayed is 2.5.

Coastal Water Temperatures

Place Temperature

Stations

Nearby Weather Stations

Station Location Temp. Windchill Dew Point Humidity Wind Precip. Elev Updated Type
                   

Watches & Warnings

There are currently no watches in effect.